Time;durP1;ratioP1;P1;durP2;ratioP2;P2;SDS_P1;SDS_P2;PMS_P1;PMS_P2;Temp;Humidity;BMP_temperature;BMP_pressure;BME280_temperature;BME280_humidity;BME280_pressure;Samples;Min_cycle;Max_cycle;Signal;HPM_P1;HPM_P2
2022/09/16 00:01:29;;;;;;;;;;;;;;;21.92;56.73;100041.34;5036429;28;6444;-70
2022/09/16 00:03:55;;;;;;;;;;;;;;;21.92;56.84;100040.56;5038290;28;5299;-69
2022/09/16 00:06:22;;;;;;;;;;;;;;;21.92;56.99;100047.09;5034469;28;4242;-69
2022/09/16 00:08:49;;;;;;;;;;;;;;;21.91;56.96;100044.88;5037666;28;4217;-69
2022/09/16 00:11:15;;;;;;;;;;;;;;;21.91;56.92;100048.50;5037427;28;4255;-69
2022/09/16 00:13:42;;;;;;;;;;;;;;;21.92;56.55;100040.56;5035434;28;4100;-69
2022/09/16 00:16:09;;;;;;;;;;;;;;;21.90;56.85;100043.44;5036623;28;5263;-69
2022/09/16 00:18:36;;;;;;;;;;;;;;;21.90;56.91;100044.16;5038402;28;4251;-69
2022/09/16 00:21:05;;;;;;;;;;;;;;;21.90;56.49;100037.66;5037286;28;4188;-69
2022/09/16 00:23:31;;;;;;;;;;;;;;;21.89;56.50;100036.19;5038748;28;4589;-69
2022/09/16 00:25:57;;;;;;;;;;;;;;;21.87;56.89;100036.13;5032464;28;5391;-69
2022/09/16 00:28:24;;;;;;;;;;;;;;;21.89;56.88;100044.81;5036711;28;4146;-69
2022/09/16 00:30:50;;;;;;;;;;;;;;;21.88;56.77;100040.47;5030323;28;4070;-69
2022/09/16 00:33:16;;;;;;;;;;;;;;;21.89;56.58;100041.94;5037241;28;4212;-69
2022/09/16 00:35:43;;;;;;;;;;;;;;;21.87;56.59;100033.97;5040173;28;4145;-69
2022/09/16 00:38:09;;;;;;;;;;;;;;;21.85;56.68;100047.59;5036392;28;4162;-69
2022/09/16 00:40:42;;;;;;;;;;;;;;;21.87;56.59;100050.53;5036348;28;4259;-69
2022/09/16 00:43:08;;;;;;;;;;;;;;;21.84;56.72;100046.13;5033913;28;4223;-69
2022/09/16 00:45:35;;;;;;;;;;;;;;;21.87;56.44;100056.28;5052157;28;4181;-69
2022/09/16 00:48:02;;;;;;;;;;;;;;;21.83;56.40;100044.66;5037697;28;4238;-69
2022/09/16 00:50:28;;;;;;;;;;;;;;;21.83;56.67;100051.16;5050942;28;4148;-69
2022/09/16 00:52:54;;;;;;;;;;;;;;;21.84;56.35;100049.00;5035513;28;5296;-69
2022/09/16 00:55:25;;;;;;;;;;;;;;;21.83;56.56;100044.66;5037383;28;4132;-69
2022/09/16 00:57:51;;;;;;;;;;;;;;;21.82;56.57;100048.97;5045554;28;4069;-69
2022/09/16 01:00:18;;;;;;;;;;;;;;;21.82;56.43;100049.69;5049505;28;4163;-69
2022/09/16 01:02:44;;;;;;;;;;;;;;;21.82;56.24;100052.56;5034802;28;5450;-69
2022/09/16 01:05:11;;;;;;;;;;;;;;;21.81;56.52;100053.25;5036336;28;4224;-69
2022/09/16 01:07:47;;;;;;;;;;;;;;;21.83;56.09;100047.53;5032651;28;4416;-69
2022/09/16 01:10:14;;;;;;;;;;;;;;;21.83;56.15;100044.66;5048771;28;4516;-69
2022/09/16 01:12:41;;;;;;;;;;;;;;;21.83;56.19;100044.66;5033878;28;5374;-69
2022/09/16 01:15:07;;;;;;;;;;;;;;;21.81;56.46;100045.34;5035630;28;5292;-69
2022/09/16 01:17:43;;;;;;;;;;;;;;;21.81;56.33;100050.38;5034404;28;4229;-69
2022/09/16 01:20:28;;;;;;;;;;;;;;;21.81;56.26;100047.50;5033751;28;4038;-69
2022/09/16 01:23:13;;;;;;;;;;;;;;;21.80;56.22;100046.75;5038677;28;4344;-69
2022/09/16 01:25:57;;;;;;;;;;;;;;;21.81;56.07;100042.47;5034066;28;5323;-69
2022/09/16 01:28:28;;;;;;;;;;;;;;;21.80;56.24;100046.75;5026890;28;5231;-69
2022/09/16 01:30:54;;;;;;;;;;;;;;;21.81;56.34;100047.50;5040252;28;4409;-68
2022/09/16 01:33:24;;;;;;;;;;;;;;;21.77;56.14;100047.38;5033209;28;4205;-69
2022/09/16 01:35:58;;;;;;;;;;;;;;;21.78;56.22;100043.06;5027609;28;4264;-69
2022/09/16 01:38:40;;;;;;;;;;;;;;;21.78;56.30;100043.81;5034384;28;4168;-69
2022/09/16 01:41:23;;;;;;;;;;;;;;;21.77;55.95;100044.50;5049768;28;4170;-69
2022/09/16 01:44:01;;;;;;;;;;;;;;;21.78;56.34;100048.84;5048047;28;4282;-69
2022/09/16 01:46:42;;;;;;;;;;;;;;;21.78;56.34;100048.84;5035098;28;4187;-69
2022/09/16 01:49:22;;;;;;;;;;;;;;;21.75;56.30;100045.91;5048623;28;4054;-69
2022/09/16 01:51:51;;;;;;;;;;;;;;;21.78;56.05;100045.97;5048080;28;5463;-69
2022/09/16 01:54:19;;;;;;;;;;;;;;;21.75;56.11;100043.00;5044237;28;5201;-69
2022/09/16 01:56:54;;;;;;;;;;;;;;;21.76;55.93;100049.50;5049465;28;4998;-69
2022/09/16 01:59:35;;;;;;;;;;;;;;;21.74;56.19;100055.97;5046845;28;4149;-70
2022/09/16 02:02:03;;;;;;;;;;;;;;;21.72;56.22;100044.38;5031070;28;5232;-69
2022/09/16 02:04:34;;;;;;;;;;;;;;;21.75;56.06;100048.78;5049650;28;4161;-70
2022/09/16 02:07:00;;;;;;;;;;;;;;;21.74;55.74;100044.44;5032583;28;4416;-69
2022/09/16 02:09:34;;;;;;;;;;;;;;;21.75;56.02;100051.66;5034254;28;5509;-70
2022/09/16 02:12:04;;;;;;;;;;;;;;;21.74;55.77;100055.97;5047351;28;4170;-69
2022/09/16 02:14:31;;;;;;;;;;;;;;;21.74;56.04;100050.22;5033428;28;4150;-70
2022/09/16 02:17:00;;;;;;;;;;;;;;;21.75;55.93;100051.66;5047323;28;5315;-70
2022/09/16 02:19:28;;;;;;;;;;;;;;;21.75;55.79;100045.91;5034602;28;5328;-70
2022/09/16 02:21:54;;;;;;;;;;;;;;;21.72;55.82;100046.53;5033595;28;5112;-64
2022/09/16 02:24:21;;;;;;;;;;;;;;;21.73;55.82;100048.72;5047619;28;4214;-70
2022/09/16 02:26:48;;;;;;;;;;;;;;;21.74;55.86;100047.31;5031521;28;4233;-70
2022/09/16 02:29:16;;;;;;;;;;;;;;;21.71;55.91;100051.53;5032670;28;4332;-70
2022/09/16 02:31:42;;;;;;;;;;;;;;;21.72;55.88;100047.25;5033683;28;4189;-70
2022/09/16 02:34:18;;;;;;;;;;;;;;;21.70;55.93;100041.44;5034125;28;4237;-70
2022/09/16 02:36:46;;;;;;;;;;;;;;;21.71;55.93;100042.91;5030932;28;4329;-70
2022/09/16 02:39:13;;;;;;;;;;;;;;;21.71;55.81;100030.66;5032227;28;4151;-70
2022/09/16 02:41:39;;;;;;;;;;;;;;;21.70;55.59;100038.56;5044953;28;4068;-70
2022/09/16 02:44:06;;;;;;;;;;;;;;;21.71;55.91;100037.13;5031337;28;4206;-70
2022/09/16 02:46:53;;;;;;;;;;;;;;;21.72;55.58;100035.75;4991240;28;966747;-70
2022/09/16 02:49:22;;;;;;;;;;;;;;;21.72;55.38;100035.75;5033496;28;5239;-70
2022/09/16 02:51:57;;;;;;;;;;;;;;;21.71;55.68;100040.03;5035520;28;4304;-70
2022/09/16 02:54:24;;;;;;;;;;;;;;;21.70;55.88;100038.56;5009653;28;4150;-69
2022/09/16 02:56:52;;;;;;;;;;;;;;;21.70;55.49;100038.56;5033977;28;4200;-70
2022/09/16 02:59:19;;;;;;;;;;;;;;;21.71;55.60;100042.16;5014382;28;4175;-70
2022/09/16 03:01:45;;;;;;;;;;;;;;;21.70;55.74;100044.31;5015262;28;4162;-70
2022/09/16 03:04:13;;;;;;;;;;;;;;;21.70;55.63;100035.69;5014915;28;4159;-70
2022/09/16 03:06:39;;;;;;;;;;;;;;;21.68;55.49;100038.50;5046695;28;4144;-70
2022/09/16 03:09:07;;;;;;;;;;;;;;;21.67;55.46;100045.69;5012603;28;4247;-70
2022/09/16 03:11:52;;;;;;;;;;;;;;;21.68;55.68;100047.16;5011949;28;4372;-70
2022/09/16 03:14:37;;;;;;;;;;;;;;;21.69;55.52;100037.09;5011564;28;4313;-69
2022/09/16 03:17:14;;;;;;;;;;;;;;;21.69;55.41;100045.75;5003900;28;5517;-70
2022/09/16 03:19:56;;;;;;;;;;;;;;;21.66;55.55;100035.56;5041864;28;4277;-70
2022/09/16 03:22:29;;;;;;;;;;;;;;;21.68;55.36;100035.63;5030087;28;4566;-70
2022/09/16 03:24:58;;;;;;;;;;;;;;;21.69;55.36;100033.47;5047214;28;5437;-69
2022/09/16 03:27:30;;;;;;;;;;;;;;;21.66;55.57;100032.69;5048915;28;5322;-69
2022/09/16 03:30:03;;;;;;;;;;;;;;;21.66;55.55;100038.44;5050053;28;4163;-69
2022/09/16 03:32:31;;;;;;;;;;;;;;;21.67;55.39;100034.16;5035242;28;4746;-70
2022/09/16 03:35:07;;;;;;;;;;;;;;;21.66;55.18;100026.91;5033067;28;4193;-69
2022/09/16 03:37:34;;;;;;;;;;;;;;;21.67;55.50;100028.41;5044703;28;4004;-70
2022/09/16 03:40:04;;;;;;;;;;;;;;;21.64;55.46;100026.84;5043488;28;4245;-68
2022/09/16 03:42:31;;;;;;;;;;;;;;;21.64;55.32;100026.84;5045213;28;4232;-69
2022/09/16 03:44:57;;;;;;;;;;;;;;;21.66;55.43;100026.19;5034743;28;4577;-69
2022/09/16 03:47:23;;;;;;;;;;;;;;;21.64;55.26;100026.84;5033118;28;4195;-69
2022/09/16 03:49:50;;;;;;;;;;;;;;;21.65;55.44;100025.47;5037016;28;4352;-69
2022/09/16 03:52:19;;;;;;;;;;;;;;;21.65;55.24;100025.47;5036537;28;5333;-69
2022/09/16 03:54:45;;;;;;;;;;;;;;;21.63;55.44;100028.28;5035544;28;4217;-69
2022/09/16 03:57:12;;;;;;;;;;;;;;;21.62;55.26;100018.16;5034438;28;4235;-69
2022/09/16 03:59:38;;;;;;;;;;;;;;;21.61;55.26;100013.81;5037117;28;4180;-69
2022/09/16 04:02:04;;;;;;;;;;;;;;;21.60;55.57;100012.38;5035499;28;4134;-69
2022/09/16 04:04:31;;;;;;;;;;;;;;;21.61;55.19;100016.69;5029003;28;4121;-70
2022/09/16 04:06:57;;;;;;;;;;;;;;;21.59;55.38;100016.63;5034315;28;4161;-69
2022/09/16 04:09:23;;;;;;;;;;;;;;;21.60;55.35;100018.13;5036815;28;4218;-69
2022/09/16 04:11:50;;;;;;;;;;;;;;;21.61;55.09;100019.59;5033365;28;4186;-70
2022/09/16 04:14:16;;;;;;;;;;;;;;;21.60;55.14;100008.72;5026322;28;4305;-70
2022/09/16 04:16:43;;;;;;;;;;;;;;;21.59;55.10;100019.53;5034515;28;4145;-70
2022/09/16 04:19:11;;;;;;;;;;;;;;;21.59;55.17;100022.41;5033046;28;4207;-70
2022/09/16 04:21:38;;;;;;;;;;;;;;;21.58;55.25;100026.72;5031952;28;5497;-70
2022/09/16 04:24:04;;;;;;;;;;;;;;;21.59;55.32;100028.16;5033247;28;4217;-70
2022/09/16 04:26:37;;;;;;;;;;;;;;;21.58;55.41;100025.94;5033228;28;4152;-70
2022/09/16 04:29:03;;;;;;;;;;;;;;;21.56;55.51;100029.53;5035757;28;4175;-69
2022/09/16 04:31:30;;;;;;;;;;;;;;;21.55;55.44;100028.03;5038030;28;4130;-70
2022/09/16 04:33:56;;;;;;;;;;;;;;;21.56;55.44;100020.88;5036408;28;5177;-69
2022/09/16 04:36:22;;;;;;;;;;;;;;;21.57;55.44;100025.22;5033482;28;4250;-69
2022/09/16 04:38:49;;;;;;;;;;;;;;;21.56;55.65;100012.25;5033107;28;4227;-68
2022/09/16 04:41:16;;;;;;;;;;;;;;;21.55;55.56;100016.53;5029962;28;4033;-70
2022/09/16 04:43:43;;;;;;;;;;;;;;;21.54;55.71;100009.31;5032639;28;4299;-70
2022/09/16 04:46:09;;;;;;;;;;;;;;;21.52;55.88;100007.09;5033199;28;4297;-70
2022/09/16 04:48:36;;;;;;;;;;;;;;;21.56;55.70;100020.16;5032311;28;4216;-70
2022/09/16 04:51:03;;;;;;;;;;;;;;;21.54;55.67;100015.78;5034141;28;4192;-69
2022/09/16 04:53:29;;;;;;;;;;;;;;;21.54;56.04;100015.78;5026606;28;4071;-54
2022/09/16 04:56:02;;;;;;;;;;;;;;;21.58;56.22;100020.94;5031556;28;4443;-51
2022/09/16 04:58:29;;;;;;;;;;;;;;;21.59;56.11;100018.78;5026775;28;4212;-54
2022/09/16 05:00:55;;;;;;;;;;;;;;;21.59;56.09;100022.41;5028418;28;4256;-52
2022/09/16 05:03:21;;;;;;;;;;;;;;;21.32;54.43;100015.13;5028319;28;4154;-48
2022/09/16 05:05:48;;;;;;;;;;;;;;;21.46;54.31;100015.56;5029251;28;4242;-50
2022/09/16 05:08:14;;;;;;;;;;;;;;;21.55;54.74;100010.75;5029088;28;4537;-51
2022/09/16 05:10:40;;;;;;;;;;;;;;;21.59;55.41;100019.53;5029634;28;4092;-52
2022/09/16 05:13:07;;;;;;;;;;;;;;;21.60;56.07;100012.38;5030476;28;5295;-52
2022/09/16 05:15:33;;;;;;;;;;;;;;;21.60;56.68;100018.13;5032026;28;4231;-50
2022/09/16 05:17:59;;;;;;;;;;;;;;;21.61;56.01;100013.09;5027600;28;4014;-53
2022/09/16 05:20:26;;;;;;;;;;;;;;;21.61;57.12;100013.81;5023654;28;4164;-53
2022/09/16 05:22:52;;;;;;;;;;;;;;;21.54;55.95;100015.06;5030224;28;4193;-54
2022/09/16 05:25:18;;;;;;;;;;;;;;;21.52;55.70;100018.63;5030161;28;4219;-52
2022/09/16 05:27:46;;;;;;;;;;;;;;;21.56;55.94;100005.75;5035479;28;4273;-52
2022/09/16 05:30:13;;;;;;;;;;;;;;;21.54;56.33;100012.19;5030561;28;4157;-48
2022/09/16 05:32:40;;;;;;;;;;;;;;;21.57;56.41;100007.94;5031603;28;3990;-49
2022/09/16 05:35:06;;;;;;;;;;;;;;;21.60;56.44;100006.59;5026056;28;4194;-54
2022/09/16 05:37:33;;;;;;;;;;;;;;;21.59;56.50;100002.22;5014452;28;4387;-54
2022/09/16 05:39:59;;;;;;;;;;;;;;;21.58;56.66;100002.91;5027562;28;4086;-53
2022/09/16 05:42:25;;;;;;;;;;;;;;;21.59;56.68;100016.63;5027336;28;5329;-51
2022/09/16 05:47:57;;;;;;;;;;;;;;;21.59;56.30;100001.50;5025841;28;4194;-48
2022/09/16 05:50:24;;;;;;;;;;;;;;;21.57;57.33;100007.94;5030183;28;5569;-50
2022/09/16 05:52:50;;;;;;;;;;;;;;;21.58;57.24;100003.66;5035740;28;4249;-50
2022/09/16 05:55:16;;;;;;;;;;;;;;;21.58;57.67;100000.78;5028913;28;4046;-48
2022/09/16 05:57:43;;;;;;;;;;;;;;;21.59;57.49;100002.22;5012055;28;4236;-49
2022/09/16 06:00:09;;;;;;;;;;;;;;;21.53;56.90;99996.28;5012466;28;4914;-49
2022/09/16 06:02:36;;;;;;;;;;;;;;;21.53;57.16;100002.06;5011277;28;4072;-51
2022/09/16 06:05:02;;;;;;;;;;;;;;;21.54;56.87;100003.53;5009858;28;5261;-51
2022/09/16 06:07:29;;;;;;;;;;;;;;;21.58;56.73;100009.41;5014356;28;4138;-50
2022/09/16 06:09:55;;;;;;;;;;;;;;;21.58;57.01;100015.19;5011838;28;4213;-48
2022/09/16 06:12:21;;;;;;;;;;;;;;;21.58;57.34;100009.41;5013982;28;4414;-49
2022/09/16 06:14:48;;;;;;;;;;;;;;;21.57;57.26;100012.97;5014372;28;4170;-48
2022/09/16 06:17:14;;;;;;;;;;;;;;;21.58;57.02;100014.44;5013027;28;4161;-49
2022/09/16 06:19:40;;;;;;;;;;;;;;;21.56;57.31;100006.47;5009596;28;4050;-50
2022/09/16 06:22:07;;;;;;;;;;;;;;;21.55;57.12;100010.75;5014596;28;5472;-51
2022/09/16 06:24:33;;;;;;;;;;;;;;;21.55;57.48;100010.75;5013470;28;4205;-50
2022/09/16 06:26:59;;;;;;;;;;;;;;;21.54;57.38;100003.53;5012951;28;4001;-51
2022/09/16 06:29:26;;;;;;;;;;;;;;;21.55;57.57;100010.75;5010971;28;4138;-53
2022/09/16 06:31:52;;;;;;;;;;;;;;;21.56;57.57;100003.59;5010825;28;4266;-51
2022/09/16 06:34:18;;;;;;;;;;;;;;;21.48;57.52;100006.25;5009258;28;5263;-58
2022/09/16 06:36:45;;;;;;;;;;;;;;;21.49;57.18;100001.97;5015657;28;4378;-60
2022/09/16 06:39:12;;;;;;;;;;;;;;;21.54;56.85;100004.28;5014018;28;4225;-57
2022/09/16 06:41:38;;;;;;;;;;;;;;;21.40;56.23;100006.00;5013722;28;4242;-58
2022/09/16 06:44:04;;;;;;;;;;;;;;;21.27;56.51;100008.50;5014810;28;5367;-58
2022/09/16 06:46:31;;;;;;;;;;;;;;;21.41;55.68;100005.34;5016748;28;4124;-59
2022/09/16 06:48:57;;;;;;;;;;;;;;;21.29;54.72;100002.81;5015040;28;5405;-59
2022/09/16 06:51:30;;;;;;;;;;;;;;;21.44;54.55;100000.38;5016408;28;4194;-60
2022/09/16 06:54:03;;;;;;;;;;;;;;;21.52;54.74;100000.59;5012331;28;4208;-60
2022/09/16 06:56:30;;;;;;;;;;;;;;;21.57;54.68;99999.28;5016428;28;4193;-59
2022/09/16 06:58:56;;;;;;;;;;;;;;;21.60;55.05;99997.97;5013996;28;4284;-60
2022/09/16 07:01:26;;;;;;;;;;;;;;;21.61;55.08;100005.19;5013410;28;5490;-59
2022/09/16 07:03:53;;;;;;;;;;;;;;;21.65;55.79;100008.19;5018968;28;4171;-59
2022/09/16 07:06:20;;;;;;;;;;;;;;;21.65;55.90;100002.41;5015121;28;4139;-59
2022/09/16 07:08:46;;;;;;;;;;;;;;;21.69;56.24;100007.53;5013859;28;4255;-59
2022/09/16 07:11:13;;;;;;;;;;;;;;;21.70;56.06;100009.75;5012453;28;4202;-59
2022/09/16 07:13:40;;;;;;;;;;;;;;;21.71;56.29;100004.72;5017192;28;4406;-59
2022/09/16 07:16:08;;;;;;;;;;;;;;;21.70;56.46;100006.13;5016309;28;4262;-59
2022/09/16 07:18:39;;;;;;;;;;;;;;;21.73;56.79;100002.63;5016451;28;5244;-60
2022/09/16 07:21:06;;;;;;;;;;;;;;;21.76;56.69;100000.53;5017579;28;5110;-62
2022/09/16 07:23:33;;;;;;;;;;;;;;;21.73;56.93;99993.97;5018995;28;4248;-63
2022/09/16 07:26:03;;;;;;;;;;;;;;;21.81;57.49;100001.41;5030040;28;4281;-61
2022/09/16 07:28:30;;;;;;;;;;;;;;;21.92;55.90;100003.09;5020853;28;4246;-60
2022/09/16 07:30:59;;;;;;;;;;;;;;;21.95;55.50;100005.38;5019530;28;4742;-60
2022/09/16 07:33:25;;;;;;;;;;;;;;;21.97;55.34;100013.34;5021302;28;4162;-60
2022/09/16 07:35:52;;;;;;;;;;;;;;;21.96;55.55;100006.81;5023055;28;4488;-58
2022/09/16 07:38:18;;;;;;;;;;;;;;;22.09;56.44;100007.88;5020280;28;4259;-62
2022/09/16 07:40:44;;;;;;;;;;;;;;;22.31;55.56;100004.88;5019585;28;4055;-63
2022/09/16 07:43:11;;;;;;;;;;;;;;;22.44;55.42;100003.00;5020975;28;4937;-61
2022/09/16 07:45:37;;;;;;;;;;;;;;;22.51;54.95;100004.63;5018590;28;4234;-61
2022/09/16 07:48:03;;;;;;;;;;;;;;;22.51;55.06;100010.38;5023372;28;4401;-64
2022/09/16 07:50:30;;;;;;;;;;;;;;;22.49;55.16;100016.09;5020720;28;4249;-63
2022/09/16 07:52:56;;;;;;;;;;;;;;;22.48;55.25;100017.53;5019812;28;4221;-61
2022/09/16 07:55:22;;;;;;;;;;;;;;;22.50;55.02;100008.94;5021390;28;4169;-61
2022/09/16 07:57:49;;;;;;;;;;;;;;;22.51;54.93;100016.16;5015846;28;4188;-61
2022/09/16 08:00:15;;;;;;;;;;;;;;;22.60;54.81;100017.09;5024416;28;5320;-61
2022/09/16 08:02:41;;;;;;;;;;;;;;;22.46;55.26;100025.41;5014038;28;4127;-62
2022/09/16 08:05:08;;;;;;;;;;;;;;;22.29;55.63;100027.16;5023316;28;4181;-59
2022/09/16 08:07:35;;;;;;;;;;;;;;;22.32;56.06;100028.66;5020098;28;4162;-62
2022/09/16 08:10:01;;;;;;;;;;;;;;;22.25;55.98;100015.53;5022373;28;4539;-60
2022/09/16 08:12:31;;;;;;;;;;;;;;;22.66;55.05;100020.13;5023784;28;4305;-57
2022/09/16 08:14:58;;;;;;;;;;;;;;;22.98;53.98;100031.69;5020906;28;4204;-58
2022/09/16 08:17:24;;;;;;;;;;;;;;;22.47;54.64;100027.63;5022288;28;5358;-57
2022/09/16 08:19:54;;;;;;;;;;;;;;;22.33;55.24;100030.13;5021707;28;5122;-59
2022/09/16 08:22:22;;;;;;;;;;;;;;;22.82;54.46;100031.31;5041875;28;5344;-59
2022/09/16 08:24:48;;;;;;;;;;;;;;;23.18;53.26;100031.44;5040612;28;4201;-60
2022/09/16 08:27:14;;;;;;;;;;;;;;;22.98;53.52;100031.69;5041436;28;5442;-60
2022/09/16 08:29:41;;;;;;;;;;;;;;;22.50;54.66;100020.47;5039166;28;4228;-60
2022/09/16 08:32:07;;;;;;;;;;;;;;;22.36;54.97;100034.56;5039025;28;4148;-59
2022/09/16 08:34:33;;;;;;;;;;;;;;;22.33;55.37;100024.34;5038107;28;6306;-60
2022/09/16 08:37:00;;;;;;;;;;;;;;;22.36;54.98;100023.00;5039825;28;4183;-60
2022/09/16 08:39:26;;;;;;;;;;;;;;;22.42;54.08;100014.50;5039485;28;4242;-56
2022/09/16 08:41:59;;;;;;;;;;;;;;;22.38;54.39;100014.41;5038083;28;4244;-55
2022/09/16 08:44:37;;;;;;;;;;;;;;;22.69;54.14;100024.50;5038846;28;5506;-60
2022/09/16 08:47:06;;;;;;;;;;;;;;;22.88;53.31;100022.78;5040207;28;4189;-59
2022/09/16 08:49:39;;;;;;;;;;;;;;;22.93;53.65;100015.69;5038618;28;5335;-60
2022/09/16 08:52:14;;;;;;;;;;;;;;;22.90;53.38;100010.56;5051178;28;4323;-59
2022/09/16 08:54:44;;;;;;;;;;;;;;;22.91;53.51;100009.88;5041615;28;5011;-60
2022/09/16 08:57:12;;;;;;;;;;;;;;;22.94;53.61;100016.41;5054437;28;4174;-60
2022/09/16 08:59:39;;;;;;;;;;;;;;;23.00;53.31;100022.38;5040815;28;5355;-59
2022/09/16 09:02:18;;;;;;;;;;;;;;;22.99;53.44;100021.63;5038853;28;4213;-60
2022/09/16 09:04:45;;;;;;;;;;;;;;;22.93;53.59;100023.59;5037182;28;4216;-60
2022/09/16 09:07:16;;;;;;;;;;;;;;;22.88;53.83;100024.94;5035327;28;4240;-60
2022/09/16 09:09:49;;;;;;;;;;;;;;;22.76;54.10;100022.50;5040086;28;4138;-59
2022/09/16 09:12:33;;;;;;;;;;;;;;;23.04;53.43;100015.94;5038604;28;4064;-60
2022/09/16 09:15:20;;;;;;;;;;;;;;;23.62;52.26;100018.59;5039262;28;4386;-60
2022/09/16 09:18:03;;;;;;;;;;;;;;;23.83;51.34;100008.91;5035621;28;4157;-58
2022/09/16 09:20:48;;;;;;;;;;;;;;;23.97;50.58;100016.38;5051768;28;4160;-61
2022/09/16 09:23:14;;;;;;;;;;;;;;;23.97;50.54;100010.59;5021159;28;5214;-59
2022/09/16 09:25:43;;;;;;;;;;;;;;;22.98;53.57;100008.59;5018343;28;4237;-60
2022/09/16 09:28:22;;;;;;;;;;;;;;;22.66;54.15;100002.09;5016763;28;4456;-61
2022/09/16 09:31:08;;;;;;;;;;;;;;;22.46;54.79;100011.72;5033011;28;4059;-60
2022/09/16 09:33:42;;;;;;;;;;;;;;;22.88;54.02;100005.47;5034067;28;4000;-62
2022/09/16 09:36:25;;;;;;;;;;;;;;;22.97;53.78;100004.22;5054216;28;4184;-60
2022/09/16 09:39:11;;;;;;;;;;;;;;;22.79;53.98;100009.59;5039745;28;4243;-60
2022/09/16 09:41:38;;;;;;;;;;;;;;;22.52;54.45;100006.09;5050355;28;4191;-59
2022/09/16 09:44:20;;;;;;;;;;;;;;;22.86;54.07;100002.56;5024059;28;4479;-61
2022/09/16 09:46:47;;;;;;;;;;;;;;;22.99;53.69;99992.75;5015799;28;4499;-61
2022/09/16 09:49:15;;;;;;;;;;;;;;;23.06;53.52;99992.88;5044886;28;4246;-61
2022/09/16 09:51:43;;;;;;;;;;;;;;;22.98;53.24;99990.53;5014746;28;4521;-63
2022/09/16 09:54:12;;;;;;;;;;;;;;;22.56;54.70;99994.66;5017578;28;4157;-63
2022/09/16 09:56:43;;;;;;;;;;;;;;;22.94;53.93;99991.16;5018223;28;4235;-63
2022/09/16 09:59:15;;;;;;;;;;;;;;;23.04;53.50;99993.56;5009146;28;5259;-64
2022/09/16 10:01:42;;;;;;;;;;;;;;;23.09;53.27;99992.25;5014175;28;5568;-61
2022/09/16 10:04:13;;;;;;;;;;;;;;;22.82;53.77;99999.56;5016224;28;4212;-63
2022/09/16 10:06:40;;;;;;;;;;;;;;;22.86;53.63;99985.22;5024420;28;4152;-61
2022/09/16 10:09:07;;;;;;;;;;;;;;;23.08;53.38;99978.50;5008152;28;4349;-63
2022/09/16 10:11:34;;;;;;;;;;;;;;;23.19;53.19;99983.06;5043044;28;5223;-62
2022/09/16 10:14:00;;;;;;;;;;;;;;;23.07;53.10;99979.94;5010407;28;4150;-62
2022/09/16 10:16:33;;;;;;;;;;;;;;;23.20;52.96;99973.72;5014180;28;4206;-62
2022/09/16 10:19:01;;;;;;;;;;;;;;;23.04;53.40;99964.69;5041639;28;4573;-62
2022/09/16 10:21:37;;;;;;;;;;;;;;;22.93;53.78;99977.41;5010010;28;4253;-62
2022/09/16 10:24:03;;;;;;;;;;;;;;;22.77;54.15;99977.81;5009494;28;4175;-60
2022/09/16 10:26:30;;;;;;;;;;;;;;;22.73;54.07;99977.72;5010372;28;4224;-64
2022/09/16 10:28:57;;;;;;;;;;;;;;;23.10;53.46;99984.31;5014775;28;4224;-62
2022/09/16 10:31:24;;;;;;;;;;;;;;;23.20;53.14;99975.84;5012903;28;5333;-61
2022/09/16 10:33:55;;;;;;;;;;;;;;;23.22;52.87;99978.78;5046103;28;4251;-63
2022/09/16 10:36:22;;;;;;;;;;;;;;;23.17;52.90;99977.25;5019510;28;4192;-62
2022/09/16 10:38:58;;;;;;;;;;;;;;;23.20;52.95;99975.84;5020893;28;4211;-62
2022/09/16 10:41:40;;;;;;;;;;;;;;;23.22;53.13;99973.00;5052592;28;5148;-62
2022/09/16 10:44:13;;;;;;;;;;;;;;;23.19;52.78;99968.63;5037860;28;4190;-63
2022/09/16 10:46:56;;;;;;;;;;;;;;;23.25;52.73;99970.88;5038154;28;4269;-62
2022/09/16 10:49:33;;;;;;;;;;;;;;;23.17;52.95;99974.34;5051893;28;4930;-62
2022/09/16 10:52:14;;;;;;;;;;;;;;;22.84;53.70;99982.28;5039106;28;4185;-63
2022/09/16 10:54:40;;;;;;;;;;;;;;;22.87;53.85;99966.47;5037925;28;4129;-63
2022/09/16 10:57:26;;;;;;;;;;;;;;;22.90;54.18;99962.22;5039702;28;4254;-65
2022/09/16 10:59:56;;;;;;;;;;;;;;;23.21;53.12;99954.94;5043012;28;4212;-65
2022/09/16 11:02:43;;;;;;;;;;;;;;;22.95;53.56;99963.78;5045414;28;3996;-60
2022/09/16 11:05:24;;;;;;;;;;;;;;;22.77;54.41;99960.50;5041134;28;5374;-60
2022/09/16 11:08:01;;;;;;;;;;;;;;;23.06;53.71;99961.84;5041716;28;4216;-61
2022/09/16 11:10:47;;;;;;;;;;;;;;;23.26;53.05;99961.53;5057622;28;4390;-61
2022/09/16 11:13:22;;;;;;;;;;;;;;;23.31;52.80;99968.84;5059387;28;5457;-61
2022/09/16 11:16:12;;;;;;;;;;;;;;;23.34;52.79;99972.50;5044003;28;4242;-61
2022/09/16 11:18:44;;;;;;;;;;;;;;;23.05;53.44;99966.16;5041345;28;4584;-60
2022/09/16 11:21:36;;;;;;;;;;;;;;;23.12;53.63;99959.09;5043005;28;5436;-60
2022/09/16 11:24:13;;;;;;;;;;;;;;;23.34;53.06;99960.97;5040312;28;5281;-60
2022/09/16 11:26:42;;;;;;;;;;;;;;;23.37;52.47;99954.53;5039108;28;5406;-60
2022/09/16 11:29:27;;;;;;;;;;;;;;;23.39;52.72;99951.69;5041586;28;4192;-61
2022/09/16 11:32:11;;;;;;;;;;;;;;;23.10;53.16;99946.78;5030993;28;5428;-62
2022/09/16 11:34:41;;;;;;;;;;;;;;;23.19;53.33;99954.19;5035540;28;5545;-64
2022/09/16 11:37:28;;;;;;;;;;;;;;;23.19;52.96;99945.50;5041121;28;4210;-75
2022/09/16 11:40:11;;;;;;;;;;;;;;;22.90;54.17;99950.66;5043851;28;4229;-64
2022/09/16 11:42:41;;;;;;;;;;;;;;;23.19;53.22;99939.75;5039035;28;4579;-65
2022/09/16 11:45:14;;;;;;;;;;;;;;;23.32;52.97;99932.78;5034128;28;4247;-66
2022/09/16 11:47:56;;;;;;;;;;;;;;;23.05;53.78;99942.34;5053477;28;4236;-70
2022/09/16 11:50:35;;;;;;;;;;;;;;;23.08;53.16;99938.06;5051108;28;4184;-70
2022/09/16 11:53:01;;;;;;;;;;;;;;;22.73;53.73;99943.09;5050920;28;5523;-72
2022/09/16 11:55:42;;;;;;;;;;;;;;;22.94;53.69;99933.44;5038847;28;5537;-71
2022/09/16 11:58:18;;;;;;;;;;;;;;;23.20;53.40;99935.41;5038963;28;4233;-72
2022/09/16 12:00:44;;;;;;;;;;;;;;;23.18;53.15;99926.72;5039891;28;5299;-60
2022/09/16 12:03:20;;;;;;;;;;;;;;;23.27;53.14;99933.38;5037189;28;4382;-62
2022/09/16 12:05:52;;;;;;;;;;;;;;;23.29;52.90;99925.50;5047234;28;4232;-62
2022/09/16 12:08:24;;;;;;;;;;;;;;;23.31;52.84;99916.88;5013605;28;4527;-63
2022/09/16 12:10:51;;;;;;;;;;;;;;;23.37;52.71;99919.16;5017273;28;4231;-62
2022/09/16 12:13:23;;;;;;;;;;;;;;;23.37;52.70;99914.09;5033556;28;5363;-61
2022/09/16 12:15:51;;;;;;;;;;;;;;;23.36;52.67;99927.06;5050901;28;4083;-63
2022/09/16 12:18:18;;;;;;;;;;;;;;;23.35;52.83;99927.78;5049889;28;5344;-64
2022/09/16 12:20:49;;;;;;;;;;;;;;;23.39;52.47;99910.53;5035454;28;5299;-65
2022/09/16 12:23:23;;;;;;;;;;;;;;;23.36;52.45;99912.63;5038475;28;5389;-61
2022/09/16 12:26:01;;;;;;;;;;;;;;;23.37;52.88;99911.22;5037750;28;4261;-61
2022/09/16 12:28:44;;;;;;;;;;;;;;;23.24;53.35;99906.63;5028044;28;4208;-61
2022/09/16 12:31:19;;;;;;;;;;;;;;;23.12;53.54;99910.00;5036392;28;5279;-61
2022/09/16 12:33:54;;;;;;;;;;;;;;;23.29;52.85;99908.16;5038321;28;4101;-60
2022/09/16 12:36:22;;;;;;;;;;;;;;;23.36;52.90;99906.84;5038105;28;4216;-60
2022/09/16 12:38:49;;;;;;;;;;;;;;;23.39;52.74;99899.69;5051901;28;4213;-61
2022/09/16 12:41:24;;;;;;;;;;;;;;;23.31;52.76;99908.19;5037669;28;4076;-70
2022/09/16 12:43:57;;;;;;;;;;;;;;;23.24;52.91;99906.63;5034683;28;4023;-68
2022/09/16 12:46:44;;;;;;;;;;;;;;;23.25;53.30;99890.78;5045406;28;4584;-69
2022/09/16 12:49:20;;;;;;;;;;;;;;;23.39;52.47;99888.13;5039541;28;4430;-71
2022/09/16 12:51:57;;;;;;;;;;;;;;;23.48;52.30;99879.59;5037293;28;5156;-72
2022/09/16 12:54:42;;;;;;;;;;;;;;;23.27;52.69;99885.00;5053500;28;4395;-62
2022/09/16 12:57:41;;;;;;;;;;;;;;;22.73;51.16;99879.59;5035247;28;4494;-64
2022/09/16 13:00:09;;;;;;;;;;;;;;;23.07;50.36;99870.19;5035460;28;4635;-66
2022/09/16 13:02:44;;;;;;;;;;;;;;;23.20;50.86;99877.66;5026533;28;4284;-65
2022/09/16 13:05:31;;;;;;;;;;;;;;;23.18;51.22;99877.63;5034285;28;4340;-64
2022/09/16 13:08:06;;;;;;;;;;;;;;;23.11;51.84;99882.56;5032690;28;4282;-70
2022/09/16 13:10:36;;;;;;;;;;;;;;;22.99;52.05;99883.03;5048383;28;4274;-64